Time;durP1;ratioP1;P1;durP2;ratioP2;P2;SDS_P1;SDS_P2;PMS_P1;PMS_P2;Temp;Humidity;BMP_temperature;BMP_pressure;BME280_temperature;BME280_humidity;BME280_pressure;Samples;Min_cycle;Max_cycle;Signal;HPM_P1;HPM_P2
2020/12/03 00:01:21;;;;;;;61.40;17.50;;;6.30;87.30;;;;;;5083942;28;20074;-57
2020/12/03 00:03:51;;;;;;;53.22;15.82;;;6.30;88.00;;;;;;5094729;28;20410;-57
2020/12/03 00:06:18;;;;;;;48.97;15.90;;;6.30;87.40;;;;;;5076251;28;20036;-55
2020/12/03 00:08:46;;;;;;;62.38;17.52;;;6.30;87.30;;;;;;5056691;28;20047;-57
2020/12/03 00:11:11;;;;;;;51.85;16.38;;;6.30;87.40;;;;;;5071490;28;20395;-56
2020/12/03 00:13:37;;;;;;;57.53;15.85;;;6.30;87.40;;;;;;5081397;28;20040;-57
2020/12/03 00:16:03;;;;;;;51.05;15.63;;;6.30;87.50;;;;;;5111588;27;20071;-55
2020/12/03 00:18:31;;;;;;;53.08;16.48;;;6.30;87.50;;;;;;5087604;28;20031;-57
2020/12/03 00:20:57;;;;;;;46.67;15.63;;;6.30;87.50;;;;;;5101846;27;20081;-57
2020/12/03 00:23:23;;;;;;;45.15;15.38;;;6.20;87.50;;;;;;5108517;28;20031;-56
2020/12/03 00:25:49;;;;;;;56.53;16.48;;;6.20;87.50;;;;;;5107362;28;20076;-56
2020/12/03 00:28:14;;;;;;;59.83;15.77;;;6.20;87.50;;;;;;5088258;28;20043;-57
2020/12/03 00:30:40;;;;;;;47.65;16.92;;;6.20;87.60;;;;;;5107589;28;20028;-56
2020/12/03 00:33:05;;;;;;;45.55;16.00;;;6.20;87.70;;;;;;5100976;28;20078;-56
2020/12/03 00:35:31;;;;;;;52.67;16.13;;;6.20;87.70;;;;;;5101707;28;20108;-56
2020/12/03 00:37:56;;;;;;;45.92;16.08;;;6.20;87.70;;;;;;5104602;28;20038;-58
2020/12/03 00:40:22;;;;;;;58.85;17.02;;;6.10;87.60;;;;;;5088600;28;20036;-57
2020/12/03 00:42:48;;;;;;;44.00;15.30;;;6.10;87.70;;;;;;5077750;28;20370;-56
2020/12/03 00:45:15;;;;;;;36.17;15.07;;;6.10;87.70;;;;;;5089951;28;20494;-57
2020/12/03 00:47:40;;;;;;;38.72;15.18;;;6.10;87.60;;;;;;5083544;28;20440;-57
2020/12/03 00:50:07;;;;;;;39.00;16.13;;;6.10;87.60;;;;;;5087698;28;20023;-56
2020/12/03 00:52:33;;;;;;;45.72;15.38;;;6.10;87.70;;;;;;5088397;28;20040;-57
2020/12/03 00:54:58;;;;;;;38.30;14.98;;;6.10;87.80;;;;;;5104055;28;20038;-56
2020/12/03 00:57:24;;;;;;;42.28;14.88;;;6.10;87.70;;;;;;5089300;28;20011;-57
2020/12/03 00:59:49;;;;;;;38.40;15.75;;;6.00;87.70;;;;;;5104449;28;20071;-57
2020/12/03 01:02:15;;;;;;;41.55;15.27;;;6.10;87.70;;;;;;5106562;28;20030;-55
2020/12/03 01:04:41;;;;;;;43.83;15.13;;;6.00;87.70;;;;;;5099103;28;20054;-56
2020/12/03 01:07:06;;;;;;;30.85;13.07;;;6.00;87.70;;;;;;5063246;28;20560;-55
2020/12/03 01:09:34;;;;;;;30.58;13.60;;;6.00;87.70;;;;;;5074297;28;20031;-56
2020/12/03 01:12:00;;;;;;;43.35;16.25;;;6.00;87.70;;;;;;5102732;28;20430;-55
2020/12/03 01:14:25;;;;;;;45.17;14.75;;;6.00;87.70;;;;;;5092760;28;20244;-57
2020/12/03 01:16:51;;;;;;;37.70;14.73;;;6.00;87.80;;;;;;5105441;28;20031;-56
2020/12/03 01:19:16;;;;;;;39.75;14.40;;;6.00;87.90;;;;;;5086297;28;20109;-57
2020/12/03 01:21:42;;;;;;;48.83;14.77;;;6.00;87.90;;;;;;5086400;28;20081;-57
2020/12/03 01:24:07;;;;;;;39.35;14.38;;;5.90;87.90;;;;;;5086576;28;20027;-56
2020/12/03 01:26:33;;;;;;;34.55;14.40;;;5.90;87.90;;;;;;5087819;28;20056;-56
2020/12/03 01:28:58;;;;;;;35.42;15.02;;;5.90;87.90;;;;;;5072176;28;20132;-57
2020/12/03 01:31:24;;;;;;;37.50;14.35;;;6.00;88.00;;;;;;5105371;28;20492;-56
2020/12/03 01:33:49;;;;;;;36.33;15.68;;;5.90;88.00;;;;;;5071108;28;20067;-56
2020/12/03 01:36:15;;;;;;;33.38;14.18;;;5.90;87.90;;;;;;5091716;28;20479;-57
2020/12/03 01:38:43;;;;;;;34.65;14.30;;;5.90;88.10;;;;;;5090747;28;20043;-57
2020/12/03 01:41:09;;;;;;;34.88;15.63;;;5.90;88.10;;;;;;5074645;28;20429;-57
2020/12/03 01:43:42;;;;;;;35.88;15.40;;;5.90;88.00;;;;;;5094322;28;20027;-56
2020/12/03 01:46:08;;;;;;;42.85;14.68;;;5.90;88.00;;;;;;5087555;28;20100;-57
2020/12/03 01:48:49;;;;;;;37.97;13.77;;;5.90;88.10;;;;;;5077775;28;20024;-56
2020/12/03 01:51:23;;;;;;;39.72;14.80;;;5.80;87.90;;;;;;5089985;28;20617;-57
2020/12/03 01:53:51;;;;;;;32.58;13.70;;;5.90;88.60;;;;;;5078172;28;20032;-56
2020/12/03 01:56:28;;;;;;;37.88;15.02;;;5.90;88.10;;;;;;5073469;28;20088;-56
2020/12/03 01:58:54;;;;;;;33.55;13.90;;;5.90;88.10;;;;;;5095222;28;20777;-56
2020/12/03 02:01:19;;;;;;;32.58;15.48;;;5.80;88.10;;;;;;5089225;28;20031;-56
2020/12/03 02:03:47;;;;;;;29.38;14.48;;;5.80;88.00;;;;;;5111238;28;20538;-57
2020/12/03 02:06:22;;;;;;;31.65;15.75;;;5.80;88.10;;;;;;5111354;28;20063;-58
2020/12/03 02:08:47;;;;;;;31.33;13.40;;;5.80;88.30;;;;;;5089615;28;20037;-57
2020/12/03 02:11:14;;;;;;;28.77;13.77;;;5.80;88.10;;;;;;5089701;28;20031;-56
2020/12/03 02:13:53;;;;;;;36.15;14.43;;;5.80;88.10;;;;;;5105247;27;20031;-57
2020/12/03 02:16:18;;;;;;;30.58;14.05;;;5.80;88.10;;;;;;5101597;28;20467;-55
2020/12/03 02:18:45;;;;;;;29.67;13.65;;;5.80;88.10;;;;;;5095724;27;20038;-55
2020/12/03 02:21:11;;;;;;;30.10;14.60;;;5.80;88.10;;;;;;5098331;28;20034;-57
2020/12/03 02:23:36;;;;;;;32.33;14.30;;;5.70;88.10;;;;;;5100391;28;20031;-56
2020/12/03 02:26:02;;;;;;;30.33;13.80;;;5.70;88.10;;;;;;5073284;28;20114;-56
2020/12/03 02:28:27;;;;;;;31.20;13.68;;;5.60;88.10;;;;;;5111845;27;20355;-56
2020/12/03 02:30:53;;;;;;;27.50;13.32;;;5.70;88.20;;;;;;5103734;28;20108;-56
2020/12/03 02:33:18;;;;;;;25.08;13.63;;;5.70;88.20;;;;;;5117477;27;20039;-56
2020/12/03 02:35:44;;;;;;;28.15;13.85;;;5.80;88.20;;;;;;5109963;28;20077;-58
2020/12/03 02:38:09;;;;;;;32.60;14.35;;;5.70;88.20;;;;;;5083173;28;20445;-57
2020/12/03 02:40:35;;;;;;;32.28;15.07;;;5.50;88.10;;;;;;5095825;28;20027;-56
2020/12/03 02:43:00;;;;;;;26.60;13.73;;;5.70;88.30;;;;;;5083382;28;20067;-57
2020/12/03 02:45:26;;;;;;;27.23;13.65;;;5.70;88.30;;;;;;5102289;28;20102;-57
2020/12/03 02:47:51;;;;;;;31.58;14.05;;;5.70;88.40;;;;;;5109909;28;20027;-57
2020/12/03 02:50:17;;;;;;;29.85;13.85;;;5.70;88.40;;;;;;5099184;28;20078;-58
2020/12/03 02:52:42;;;;;;;29.85;13.48;;;5.70;88.40;;;;;;5108559;27;20126;-57
2020/12/03 02:55:08;;;;;;;33.80;14.13;;;5.70;88.40;;;;;;5112658;27;20508;-57
2020/12/03 02:57:34;;;;;;;28.63;13.73;;;5.70;88.40;;;;;;5081972;27;20111;-56
2020/12/03 02:59:59;;;;;;;30.05;12.90;;;5.70;88.40;;;;;;5113403;27;20038;-56
2020/12/03 03:02:25;;;;;;;23.52;13.32;;;5.70;88.40;;;;;;5106653;28;20032;-57
2020/12/03 03:04:50;;;;;;;28.50;12.82;;;5.70;88.40;;;;;;5080617;28;20074;-56
2020/12/03 03:07:16;;;;;;;25.98;14.20;;;5.60;88.40;;;;;;5096010;27;20040;-57
2020/12/03 03:09:41;;;;;;;27.02;13.73;;;5.60;88.40;;;;;;5091185;28;20040;-55
2020/12/03 03:12:07;;;;;;;25.25;13.30;;;5.60;88.50;;;;;;5103659;28;20047;-56
2020/12/03 03:14:33;;;;;;;21.02;12.77;;;5.60;88.40;;;;;;5076856;28;20080;-57
2020/12/03 03:16:58;;;;;;;26.83;13.88;;;5.60;88.40;;;;;;5108097;28;20036;-56
2020/12/03 03:19:24;;;;;;;27.02;13.45;;;5.60;88.50;;;;;;5109152;27;20023;-58
2020/12/03 03:21:49;;;;;;;22.90;13.38;;;5.60;88.50;;;;;;5090157;28;20036;-56
2020/12/03 03:24:15;;;;;;;28.08;13.93;;;5.60;88.40;;;;;;5107970;28;20111;-56
2020/12/03 03:26:41;;;;;;;27.58;14.18;;;5.60;88.40;;;;;;5075132;28;20528;-58
2020/12/03 03:29:06;;;;;;;24.83;13.05;;;5.60;88.40;;;;;;5106507;28;20075;-57
2020/12/03 03:31:32;;;;;;;29.15;13.80;;;5.60;88.50;;;;;;5107338;28;20067;-57
2020/12/03 03:33:58;;;;;;;26.85;13.85;;;5.60;88.50;;;;;;5093048;28;20061;-57
2020/12/03 03:36:23;;;;;;;29.90;13.35;;;5.60;88.50;;;;;;5088708;28;20028;-57
2020/12/03 03:38:49;;;;;;;27.33;14.25;;;5.60;88.50;;;;;;5108685;28;20061;-57
2020/12/03 03:41:14;;;;;;;21.05;13.32;;;5.60;88.50;;;;;;5089962;28;20118;-56
2020/12/03 03:43:40;;;;;;;26.55;13.68;;;5.70;88.50;;;;;;5101888;28;20122;-57
2020/12/03 03:46:05;;;;;;;25.52;13.55;;;5.60;88.50;;;;;;5108430;28;20120;-56
2020/12/03 03:48:31;;;;;;;24.85;12.77;;;5.60;88.50;;;;;;5108437;28;20050;-57
2020/12/03 03:50:57;;;;;;;29.85;12.80;;;5.60;88.50;;;;;;5091980;28;20027;-57
2020/12/03 03:53:23;;;;;;;20.52;12.43;;;5.60;88.50;;;;;;5107633;28;20060;-56
2020/12/03 03:55:48;;;;;;;24.23;13.52;;;5.60;88.50;;;;;;5089076;28;20040;-57
2020/12/03 03:58:14;;;;;;;28.25;13.13;;;5.50;88.50;;;;;;5089773;28;20035;-56
2020/12/03 04:00:41;;;;;;;24.67;13.05;;;5.50;88.50;;;;;;5104487;28;20031;-56
2020/12/03 04:03:13;;;;;;;27.90;13.80;;;5.50;88.50;;;;;;5100884;28;20030;-58
2020/12/03 04:05:39;;;;;;;22.15;13.77;;;5.50;88.50;;;;;;5090198;28;20054;-56
2020/12/03 04:08:05;;;;;;;26.65;13.50;;;5.50;88.60;;;;;;5081875;28;20130;-57
2020/12/03 04:10:30;;;;;;;21.77;12.88;;;5.50;88.60;;;;;;5075301;28;20562;-57
2020/12/03 04:12:56;;;;;;;24.65;13.85;;;5.50;88.60;;;;;;5092307;28;20398;-57
2020/12/03 04:15:21;;;;;;;23.08;13.27;;;5.50;88.60;;;;;;5090806;28;20479;-57
2020/12/03 04:17:47;;;;;;;23.00;12.85;;;5.50;88.50;;;;;;5110166;27;20103;-58
2020/12/03 04:20:13;;;;;;;26.00;13.27;;;5.60;88.60;;;;;;5085062;28;20024;-57
2020/12/03 04:22:39;;;;;;;29.77;12.52;;;5.50;88.50;;;;;;5057743;28;20050;-56
2020/12/03 04:25:04;;;;;;;30.23;13.35;;;5.50;88.50;;;;;;5085414;28;20024;-57
2020/12/03 04:27:30;;;;;;;46.80;14.43;;;5.60;89.20;;;;;;5108825;27;20513;-57
2020/12/03 04:29:55;;;;;;;35.30;13.90;;;5.60;88.50;;;;;;5092531;28;20123;-57
2020/12/03 04:32:21;;;;;;;28.95;14.18;;;5.50;88.50;;;;;;5072752;28;20042;-57
2020/12/03 04:34:46;;;;;;;31.27;13.73;;;5.50;88.50;;;;;;5090881;28;20055;-56
2020/12/03 04:37:12;;;;;;;31.60;13.65;;;5.60;88.60;;;;;;5112010;27;20055;-56
2020/12/03 04:39:37;;;;;;;31.17;14.57;;;5.60;88.60;;;;;;5107862;27;20119;-56
2020/12/03 04:42:03;;;;;;;34.97;14.27;;;5.60;88.60;;;;;;5110740;27;20034;-57
2020/12/03 04:44:34;;;;;;;31.60;12.63;;;5.50;88.50;;;;;;5092028;28;20062;-57
2020/12/03 04:47:14;;;;;;;27.58;13.27;;;5.50;88.60;;;;;;5092428;28;20031;-56
2020/12/03 04:49:51;;;;;;;29.27;13.27;;;5.50;88.70;;;;;;5088318;28;20559;-56
2020/12/03 04:52:35;;;;;;;32.42;14.25;;;5.50;89.30;;;;;;5107875;28;20032;-56
2020/12/03 04:55:13;;;;;;;30.38;13.27;;;5.50;89.30;;;;;;5089090;28;20035;-57
2020/12/03 04:58:16;;;;;;;28.63;13.05;;;5.50;89.40;;;;;;5092862;28;20092;-57
2020/12/03 05:00:46;;;;;;;33.85;14.30;;;5.50;89.20;;;;;;5068164;28;20503;-57
2020/12/03 05:03:41;;;;;;;33.95;12.80;;;5.50;89.50;;;;;;5071123;28;20035;-57
2020/12/03 05:06:17;;;;;;;30.23;13.07;;;5.50;89.30;;;;;;5093116;28;20125;-56
2020/12/03 05:09:02;;;;;;;29.33;13.10;;;5.50;89.50;;;;;;5092072;28;20059;-57
2020/12/03 05:11:39;;;;;;;32.75;13.07;;;5.50;89.50;;;;;;5066893;28;20097;-56
2020/12/03 05:14:32;;;;;;;30.13;13.82;;;5.60;89.40;;;;;;5089261;28;20122;-57
2020/12/03 05:17:13;;;;;;;24.92;14.10;;;5.50;89.40;;;;;;5095601;28;20141;-56
2020/12/03 05:19:40;;;;;;;31.15;13.80;;;5.50;89.30;;;;;;5105405;28;20498;-56
2020/12/03 05:22:18;;;;;;;26.85;13.00;;;5.50;89.20;;;;;;5070542;27;20047;-56
2020/12/03 05:24:43;;;;;;;25.75;13.43;;;5.50;89.30;;;;;;5096843;28;20035;-56
2020/12/03 05:27:18;;;;;;;23.05;13.55;;;5.50;89.40;;;;;;5088405;28;20342;-57
2020/12/03 05:29:45;;;;;;;31.15;14.15;;;5.50;89.30;;;;;;5108439;27;20050;-57
2020/12/03 05:32:11;;;;;;;32.20;13.23;;;5.50;89.30;;;;;;5115043;27;20077;-56
2020/12/03 05:34:36;;;;;;;28.02;14.27;;;5.50;89.30;;;;;;5108600;28;20032;-56
2020/12/03 05:37:04;;;;;;;25.20;14.05;;;5.50;89.30;;;;;;5095980;28;20365;-57
2020/12/03 05:39:34;;;;;;;30.60;13.77;;;5.50;89.30;;;;;;5094232;28;20043;-57
2020/12/03 05:42:04;;;;;;;31.42;14.25;;;5.50;89.20;;;;;;5093762;28;20463;-57
2020/12/03 05:44:43;;;;;;;24.30;14.55;;;5.50;89.20;;;;;;5114193;27;20035;-57
2020/12/03 05:47:29;;;;;;;26.40;14.43;;;5.50;89.20;;;;;;5095494;28;20073;-58
2020/12/03 05:49:57;;;;;;;28.50;14.50;;;5.70;89.20;;;;;;5098420;27;20031;-56
2020/12/03 05:52:24;;;;;;;25.73;14.10;;;5.50;89.00;;;;;;5087361;28;20032;-57
2020/12/03 05:55:09;;;;;;;25.73;14.90;;;5.50;89.00;;;;;;5071127;28;20028;-56
2020/12/03 05:57:37;;;;;;;17.63;10.15;;;5.50;89.00;;;;;;5111678;28;20122;-55
2020/12/03 06:00:22;;;;;;;24.90;14.43;;;5.50;89.00;;;;;;5094795;28;20085;-57
2020/12/03 06:03:10;;;;;;;27.63;14.80;;;5.50;88.90;;;;;;5079264;28;20463;-57
2020/12/03 06:06:13;;;;;;;30.08;13.85;;;5.50;88.90;;;;;;5103346;28;20035;-57
2020/12/03 06:08:55;;;;;;;26.10;14.23;;;5.50;89.00;;;;;;5106415;28;20108;-56
2020/12/03 06:11:37;;;;;;;25.48;14.10;;;5.50;89.00;;;;;;5091449;28;20023;-56
2020/12/03 06:14:06;;;;;;;21.75;14.30;;;5.50;89.00;;;;;;5095855;28;20543;-57
2020/12/03 06:16:45;;;;;;;25.02;13.43;;;5.50;89.00;;;;;;5112862;27;20027;-57
2020/12/03 06:19:20;;;;;;;26.77;13.88;;;5.50;89.00;;;;;;5076219;28;20134;-56
2020/12/03 06:22:04;;;;;;;23.38;13.82;;;5.40;88.90;;;;;;5101272;28;20077;-58
2020/12/03 06:24:52;;;;;;;23.88;14.20;;;5.40;88.90;;;;;;5108941;28;20435;-57
2020/12/03 06:27:48;;;;;;;25.17;14.13;;;5.50;89.00;;;;;;5109084;28;20062;-57
2020/12/03 06:30:21;;;;;;;35.60;15.00;;;5.50;88.90;;;;;;5068673;28;20028;-57
2020/12/03 06:33:00;;;;;;;24.80;15.38;;;5.50;88.90;;;;;;5093485;28;20100;-57
2020/12/03 06:35:50;;;;;;;28.33;15.00;;;5.50;88.90;;;;;;5096445;28;20489;-55
2020/12/03 06:38:38;;;;;;;26.25;14.70;;;5.40;88.90;;;;;;5082751;28;20034;-56
2020/12/03 06:41:42;;;;;;;41.70;16.25;;;5.40;88.90;;;;;;5091933;28;20145;-56
2020/12/03 06:44:17;;;;;;;38.55;15.43;;;5.40;88.70;;;;;;5075748;28;20027;-56
2020/12/03 06:46:51;;;;;;;40.35;16.80;;;5.40;88.70;;;;;;5084739;28;20043;-57
2020/12/03 06:49:44;;;;;;;25.48;14.98;;;5.40;88.70;;;;;;5107604;28;20028;-57
2020/12/03 06:52:31;;;;;;;36.92;16.00;;;5.40;88.70;;;;;;5106814;28;20591;-56
2020/12/03 06:55:18;;;;;;;37.55;16.38;;;5.40;88.60;;;;;;5088032;28;20070;-57
2020/12/03 06:57:55;;;;;;;49.88;16.70;;;5.40;88.60;;;;;;5091903;28;20019;-56
2020/12/03 07:00:31;;;;;;;42.60;15.40;;;5.40;88.60;;;;;;5097563;27;20015;-56
2020/12/03 07:03:09;;;;;;;48.88;17.60;;;5.40;88.60;;;;;;5077299;28;20039;-57
2020/12/03 07:06:25;;;;;;;40.75;16.23;;;5.40;88.50;;;;;;5062994;28;20024;-56
2020/12/03 07:09:14;;;;;;;34.53;15.50;;;5.40;88.40;;;;;;5076132;28;20031;-60
2020/12/03 07:12:02;;;;;;;37.20;16.75;;;5.50;88.30;;;;;;5089551;27;20499;-57
2020/12/03 07:14:39;;;;;;;49.00;16.35;;;5.40;88.30;;;;;;5076518;28;20047;-56
2020/12/03 07:17:21;;;;;;;42.00;16.40;;;5.40;88.20;;;;;;5104925;27;20428;-56
2020/12/03 07:20:24;;;;;;;48.58;15.90;;;5.40;88.30;;;;;;5086981;28;20085;-56
2020/12/03 07:23:02;;;;;;;49.45;16.27;;;5.40;88.30;;;;;;5073483;27;20027;-56
2020/12/03 07:25:27;;;;;;;46.88;16.35;;;5.40;88.20;;;;;;5074650;28;20028;-55
2020/12/03 07:28:15;;;;;;;39.92;16.23;;;5.40;88.20;;;;;;5050128;28;20352;-56
2020/12/03 07:30:57;;;;;;;36.67;17.52;;;5.40;88.10;;;;;;5088904;28;20043;-57
2020/12/03 07:33:38;;;;;;;41.88;15.88;;;5.30;88.00;;;;;;5070450;28;20035;-57
2020/12/03 07:36:28;;;;;;;40.63;17.05;;;5.40;88.10;;;;;;5103956;28;20050;-57
2020/12/03 07:39:01;;;;;;;31.67;16.50;;;5.40;88.00;;;;;;5077963;28;20107;-56
2020/12/03 07:41:29;;;;;;;40.00;17.40;;;5.40;87.90;;;;;;5066946;28;20709;-58
2020/12/03 07:44:19;;;;;;;37.28;16.40;;;5.40;87.90;;;;;;5053258;28;20031;-57
2020/12/03 07:46:45;;;;;;;39.15;15.65;;;5.40;88.00;;;;;;5082064;28;20474;-56
2020/12/03 07:49:10;;;;;;;43.70;16.25;;;5.40;88.00;;;;;;5071542;28;20039;-57
2020/12/03 07:51:36;;;;;;;53.83;16.77;;;5.40;88.00;;;;;;5070640;28;20039;-56
2020/12/03 07:54:17;;;;;;;40.00;16.05;;;5.40;88.00;;;;;;5065266;28;20031;-57
2020/12/03 07:56:50;;;;;;;41.38;17.27;;;5.40;87.90;;;;;;5103650;27;20058;-56
2020/12/03 07:59:27;;;;;;;44.75;17.35;;;5.40;87.80;;;;;;5096688;28;20019;-57
2020/12/03 08:01:53;;;;;;;45.03;15.40;;;5.40;87.80;;;;;;5093534;28;20356;-55
2020/12/03 08:04:37;;;;;;;35.90;16.33;;;5.40;88.00;;;;;;5080252;28;20015;-58
2020/12/03 08:07:03;;;;;;;51.03;18.02;;;5.40;87.80;;;;;;5091773;28;20032;-56
2020/12/03 08:09:41;;;;;;;44.78;16.77;;;5.40;87.70;;;;;;5101930;27;20358;-56
2020/12/03 08:12:11;;;;;;;50.38;16.98;;;5.40;87.70;;;;;;5075510;28;20039;-57
2020/12/03 08:14:56;;;;;;;75.38;19.10;;;5.40;87.60;;;;;;5084921;28;20070;-57
2020/12/03 08:17:21;;;;;;;66.28;18.80;;;5.40;87.60;;;;;;5083047;28;20028;-58
2020/12/03 08:20:02;;;;;;;46.33;17.38;;;5.40;87.50;;;;;;5104897;27;20034;-57
2020/12/03 08:22:33;;;;;;;55.75;17.55;;;5.40;87.40;;;;;;5097634;28;20028;-57
2020/12/03 08:25:25;;;;;;;44.25;16.83;;;5.40;87.20;;;;;;5101391;28;20077;-56
2020/12/03 08:28:00;;;;;;;34.28;15.35;;;5.40;87.10;;;;;;5099411;27;20458;-57
2020/12/03 08:30:38;;;;;;;39.30;16.92;;;5.40;86.90;;;;;;5087062;28;20020;-57
2020/12/03 08:33:11;;;;;;;38.60;16.48;;;5.40;87.00;;;;;;5101834;28;20032;-56
2020/12/03 08:35:38;;;;;;;54.50;17.38;;;5.50;87.00;;;;;;5076303;28;20031;-56
2020/12/03 08:38:05;;;;;;;53.38;16.98;;;5.50;86.90;;;;;;5068342;28;20110;-56
2020/12/03 08:40:32;;;;;;;39.90;16.92;;;5.50;86.90;;;;;;5086167;28;20156;-56
2020/12/03 08:43:02;;;;;;;44.83;16.45;;;5.60;86.80;;;;;;5070394;28;20039;-57
2020/12/03 08:45:28;;;;;;;48.38;18.60;;;5.60;86.80;;;;;;5068560;28;20063;-58
2020/12/03 08:47:54;;;;;;;53.08;16.08;;;5.50;86.40;;;;;;5085726;28;20071;-57
2020/12/03 08:50:19;;;;;;;62.13;17.33;;;5.50;86.40;;;;;;5060009;28;20028;-57
2020/12/03 08:52:46;;;;;;;41.10;15.80;;;5.60;86.60;;;;;;5087508;28;20495;-56
2020/12/03 08:55:11;;;;;;;67.03;17.58;;;5.60;86.60;;;;;;5092810;28;20043;-57
2020/12/03 08:57:38;;;;;;;66.82;16.20;;;5.60;86.50;;;;;;5072379;28;20464;-57
2020/12/03 09:00:05;;;;;;;105.70;20.73;;;5.70;86.40;;;;;;5084132;28;20019;-58
2020/12/03 09:02:30;;;;;;;46.13;16.10;;;5.70;86.30;;;;;;5086057;28;20027;-57
2020/12/03 09:04:57;;;;;;;53.85;15.98;;;5.70;86.10;;;;;;5084712;28;20054;-57
2020/12/03 09:07:24;;;;;;;47.40;16.23;;;5.70;86.00;;;;;;5084519;28;20066;-56
2020/12/03 09:09:50;;;;;;;64.57;16.80;;;5.70;85.90;;;;;;5081487;28;20666;-57
2020/12/03 09:12:39;;;;;;;78.15;15.82;;;5.70;85.70;;;;;;5100928;28;20035;-57
2020/12/03 09:15:07;;;;;;;60.05;16.15;;;5.70;85.40;;;;;;5083823;28;20040;-57
2020/12/03 09:17:33;;;;;;;63.53;16.02;;;5.70;85.00;;;;;;5096310;28;20046;-58
2020/12/03 09:20:06;;;;;;;61.58;16.58;;;5.80;85.00;;;;;;5101910;28;20039;-56
2020/12/03 09:22:42;;;;;;;41.08;14.93;;;5.80;84.90;;;;;;5057625;28;20507;-56
2020/12/03 09:25:08;;;;;;;74.70;17.27;;;5.80;85.00;;;;;;5066234;28;20382;-57
2020/12/03 09:27:38;;;;;;;65.63;15.48;;;5.80;84.90;;;;;;5061580;28;20035;-56
2020/12/03 09:30:04;;;;;;;59.85;14.30;;;5.80;84.70;;;;;;5074781;28;20127;-58
2020/12/03 09:32:29;;;;;;;73.38;15.65;;;5.80;84.50;;;;;;5061965;28;20040;-57
2020/12/03 09:34:55;;;;;;;57.40;14.45;;;5.80;84.00;;;;;;5061668;28;20037;-56
2020/12/03 09:37:21;;;;;;;58.72;14.23;;;5.90;84.00;;;;;;5052900;28;20476;-56
2020/12/03 09:39:46;;;;;;;79.97;14.38;;;5.90;84.00;;;;;;5057845;28;20525;-57
2020/12/03 09:42:13;;;;;;;55.25;15.07;;;5.90;83.90;;;;;;5051457;28;20025;-57
2020/12/03 09:44:39;;;;;;;57.33;15.13;;;5.90;83.90;;;;;;5058000;28;20488;-56
2020/12/03 09:47:13;;;;;;;54.15;14.05;;;5.90;83.90;;;;;;5030816;28;20029;-56
2020/12/03 09:49:45;;;;;;;63.33;13.70;;;6.00;83.70;;;;;;5044286;28;20035;-57
2020/12/03 09:52:11;;;;;;;61.25;13.90;;;6.00;83.40;;;;;;5045243;28;20032;-58
2020/12/03 09:54:38;;;;;;;44.03;11.95;;;5.90;83.10;;;;;;5045956;28;20052;-57
2020/12/03 09:57:04;;;;;;;42.38;12.00;;;6.00;83.10;;;;;;5063398;28;20025;-56
2020/12/03 09:59:30;;;;;;;62.92;13.35;;;6.00;82.70;;;;;;5060866;28;20028;-59
2020/12/03 10:02:08;;;;;;;64.93;13.25;;;6.00;83.00;;;;;;5059170;28;20484;-57
2020/12/03 10:04:47;;;;;;;52.85;11.45;;;6.10;83.00;;;;;;5059351;28;20055;-56
2020/12/03 10:07:43;;;;;;;72.97;12.50;;;6.10;83.10;;;;;;5058407;28;20021;-58
2020/12/03 10:10:42;;;;;;;35.63;11.38;;;6.10;82.30;;;;;;5080242;28;20032;-57
2020/12/03 10:13:22;;;;;;;44.28;11.35;;;6.10;81.50;;;;;;5062320;28;20059;-56
2020/12/03 10:16:07;;;;;;;50.90;11.55;;;6.20;82.00;;;;;;5067660;28;20028;-58
2020/12/03 10:18:52;;;;;;;45.03;10.93;;;6.10;81.80;;;;;;5045620;28;20025;-55
2020/12/03 10:21:26;;;;;;;55.25;10.48;;;6.10;81.50;;;;;;5062504;28;20082;-57
2020/12/03 10:24:30;;;;;;;43.65;11.52;;;6.20;81.60;;;;;;5032413;28;20479;-56
2020/12/03 10:27:12;;;;;;;35.63;10.50;;;6.20;81.60;;;;;;5026055;28;20720;-56
2020/12/03 10:29:44;;;;;;;47.72;11.60;;;6.20;81.70;;;;;;5063877;28;20032;-57
2020/12/03 10:32:12;;;;;;;28.88;10.45;;;6.20;81.70;;;;;;5046705;28;20044;-57
2020/12/03 10:34:44;;;;;;;34.97;10.38;;;6.20;81.60;;;;;;5063870;28;20048;-57
2020/12/03 10:37:23;;;;;;;45.58;11.38;;;6.30;81.90;;;;;;5045037;28;20036;-56
2020/12/03 10:39:52;;;;;;;41.28;11.57;;;6.20;81.70;;;;;;5057999;28;20563;-56
2020/12/03 10:42:18;;;;;;;49.92;11.65;;;6.20;81.70;;;;;;5060747;28;20055;-58
2020/12/03 10:44:44;;;;;;;29.42;10.30;;;6.30;81.60;;;;;;5031237;28;20047;-56
2020/12/03 10:47:12;;;;;;;39.97;10.18;;;6.20;81.80;;;;;;5042451;28;20797;-57
2020/12/03 10:49:37;;;;;;;50.15;12.30;;;6.20;81.70;;;;;;5063736;28;20025;-56
2020/12/03 10:52:03;;;;;;;56.78;12.65;;;6.30;81.80;;;;;;5046171;28;20028;-57
2020/12/03 10:54:31;;;;;;;33.30;10.73;;;6.20;81.90;;;;;;5047962;28;20032;-57
2020/12/03 10:56:57;;;;;;;38.15;11.20;;;6.30;82.10;;;;;;5066704;28;20040;-56
2020/12/03 10:59:37;;;;;;;42.88;10.90;;;6.40;82.20;;;;;;5048228;28;20041;-56
2020/12/03 11:02:03;;;;;;;39.65;10.85;;;6.30;81.70;;;;;;5061061;28;20042;-57
2020/12/03 11:04:28;;;;;;;46.30;10.93;;;6.30;81.30;;;;;;5063169;28;20684;-58
2020/12/03 11:06:55;;;;;;;37.95;10.10;;;6.30;81.40;;;;;;5063967;28;20506;-56
2020/12/03 11:09:21;;;;;;;32.13;9.55;;;6.30;81.50;;;;;;5066940;28;20044;-57
2020/12/03 11:11:47;;;;;;;47.53;10.65;;;6.30;81.10;;;;;;5030218;28;20147;-57
2020/12/03 11:14:14;;;;;;;24.15;9.25;;;6.30;80.80;;;;;;5064679;28;20063;-56
2020/12/03 11:16:52;;;;;;;34.58;8.93;;;6.30;80.70;;;;;;5066493;28;20437;-57
2020/12/03 11:19:17;;;;;;;39.22;9.45;;;6.30;80.50;;;;;;5045729;28;20486;-56
2020/12/03 11:21:56;;;;;;;26.67;8.50;;;6.30;80.30;;;;;;5048913;28;20111;-59
2020/12/03 11:24:33;;;;;;;39.17;10.07;;;6.30;80.10;;;;;;5049589;28;20141;-56
2020/12/03 11:26:59;;;;;;;23.70;9.23;;;6.30;81.00;;;;;;5061055;28;20021;-57
2020/12/03 11:29:25;;;;;;;30.23;8.80;;;6.30;80.10;;;;;;5044105;28;20054;-56
2020/12/03 11:31:55;;;;;;;38.33;10.35;;;6.30;80.10;;;;;;5087287;28;20048;-57
2020/12/03 11:34:21;;;;;;;30.63;9.15;;;6.20;80.10;;;;;;5098347;28;20526;-56
2020/12/03 11:36:46;;;;;;;32.55;8.73;;;6.30;80.10;;;;;;5064728;28;20055;-57
2020/12/03 11:39:12;;;;;;;33.30;8.80;;;6.30;80.30;;;;;;5066882;27;20019;-57
2020/12/03 11:42:16;;;;;;;25.45;9.10;;;6.20;79.80;;;;;;5082888;28;20032;-56
2020/12/03 11:47:52;;;;;;;29.02;8.45;;;6.20;79.70;;;;;;5104235;27;20566;-58
2020/12/03 11:49:43;;;;;;;19.98;8.30;;;6.20;79.90;;;;;;5064310;27;20042;-58
2020/12/03 11:52:12;;;;;;;25.13;8.55;;;6.20;80.00;;;;;;5077993;28;20143;-57
2020/12/03 11:54:38;;;;;;;35.63;9.30;;;6.20;80.00;;;;;;5096722;28;20028;-57
2020/12/03 11:57:04;;;;;;;46.70;10.32;;;6.20;79.70;;;;;;5097097;28;20724;-57
2020/12/03 11:59:33;;;;;;;43.25;8.45;;;6.20;79.40;;;;;;5092082;28;20465;-56
2020/12/03 12:02:03;;;;;;;62.17;9.32;;;6.20;79.30;;;;;;5097480;27;20028;-56
2020/12/03 12:04:37;;;;;;;51.20;9.90;;;6.20;79.10;;;;;;5060228;28;20115;-57
2020/12/03 12:09:38;;;;;;;33.08;8.77;;;6.20;78.60;;;;;;5088838;27;20386;-58
2020/12/03 12:12:03;;;;;;;32.33;7.60;;;6.20;78.40;;;;;;5089454;28;20038;-57
2020/12/03 12:14:29;;;;;;;38.72;7.45;;;6.20;78.30;;;;;;5089827;28;20023;-57
2020/12/03 12:16:55;;;;;;;50.00;9.38;;;6.20;78.10;;;;;;5098372;28;20063;-59
2020/12/03 12:19:21;;;;;;;38.45;8.07;;;6.20;77.90;;;;;;5085786;28;20103;-56
2020/12/03 12:21:47;;;;;;;36.70;8.65;;;6.20;78.30;;;;;;5073310;28;20031;-57
2020/12/03 12:24:13;;;;;;;33.13;7.60;;;6.20;77.90;;;;;;5108828;27;20026;-58
2020/12/03 12:26:38;;;;;;;32.15;7.88;;;6.20;78.00;;;;;;5087942;28;20039;-57
2020/12/03 12:29:04;;;;;;;26.33;7.47;;;6.30;78.20;;;;;;5070263;28;20324;-55
2020/12/03 12:31:31;;;;;;;31.85;7.72;;;6.30;77.60;;;;;;5083816;28;20418;-57
2020/12/03 12:33:56;;;;;;;35.65;7.38;;;6.30;78.10;;;;;;5105326;28;20076;-57
2020/12/03 12:36:22;;;;;;;36.38;8.05;;;6.30;78.40;;;;;;5102266;28;20500;-57
2020/12/03 12:38:47;;;;;;;48.78;9.02;;;6.40;78.50;;;;;;5089370;28;20027;-56
2020/12/03 12:41:13;;;;;;;36.90;7.90;;;6.30;78.20;;;;;;5087691;28;20058;-56
2020/12/03 12:43:38;;;;;;;23.10;6.68;;;6.40;78.10;;;;;;5109081;27;20079;-58
2020/12/03 12:46:04;;;;;;;26.85;7.43;;;6.30;78.10;;;;;;5104838;28;20026;-56
2020/12/03 12:48:29;;;;;;;42.60;8.80;;;6.40;78.00;;;;;;5103953;28;20153;-56
2020/12/03 12:50:55;;;;;;;31.77;7.05;;;6.40;77.20;;;;;;5093262;28;20659;-57
2020/12/03 12:53:20;;;;;;;37.03;7.43;;;6.30;77.90;;;;;;5087103;28;20114;-57
2020/12/03 12:55:46;;;;;;;53.00;9.05;;;6.40;78.10;;;;;;5097168;28;20531;-57
2020/12/03 12:58:11;;;;;;;31.30;6.40;;;6.40;77.50;;;;;;5084880;28;20522;-57
2020/12/03 13:00:37;;;;;;;20.67;6.65;;;6.40;77.80;;;;;;5076770;28;20080;-58
2020/12/03 13:03:03;;;;;;;30.27;6.07;;;6.40;77.80;;;;;;5087831;28;20028;-58